createdAt,value
2023-04-08T06:11:42.976Z,12.10
2023-04-08T06:11:54.128Z,12.00
2023-04-08T06:12:05.385Z,12.00
2023-04-08T06:12:15.177Z,11.80
2023-04-08T06:12:27.241Z,12.10
2023-04-08T06:12:34.440Z,12.10
2023-04-08T06:12:44.652Z,12.20
2023-04-08T06:12:54.636Z,12.70
2023-04-08T06:13:14.902Z,13.80
2023-04-08T06:13:25.074Z,13.80
2023-04-08T06:13:35.189Z,14.00
2023-04-08T06:13:45.335Z,13.80
2023-04-08T06:13:55.372Z,13.80
2023-04-08T06:14:06.288Z,13.30
2023-04-08T06:14:15.566Z,13.10
2023-04-08T06:14:25.753Z,13.70
2023-04-08T06:14:35.821Z,13.50
2023-04-08T06:14:46.011Z,13.40
2023-04-08T06:14:56.000Z,13.30
2023-04-08T06:15:16.155Z,13.20
2023-04-08T06:15:26.379Z,12.80
2023-04-08T06:15:36.569Z,13.00
2023-04-08T06:15:46.605Z,13.40
2023-04-08T06:15:56.802Z,13.80
2023-04-08T06:16:06.954Z,14.40
2023-04-08T06:16:18.882Z,15.10
2023-04-08T06:16:27.155Z,15.10
2023-04-08T06:16:37.239Z,15.20
2023-04-08T06:16:47.452Z,15.30
2023-04-08T06:16:57.757Z,15.10
2023-04-08T06:17:07.822Z,15.00
2023-04-08T06:17:21.375Z,14.70
2023-04-08T06:17:27.960Z,14.60
2023-04-08T06:17:38.198Z,14.80
2023-04-08T06:17:48.237Z,14.50
2023-04-08T06:17:58.326Z,14.60
2023-04-08T06:18:08.469Z,14.80
2023-04-08T06:18:28.691Z,15.20
2023-04-08T06:18:38.761Z,15.10
2023-04-08T06:18:48.997Z,15.00
2023-04-08T06:18:59.085Z,14.70
2023-04-08T06:19:09.241Z,14.40
2023-04-08T06:19:19.395Z,14.10
2023-04-08T06:19:29.570Z,13.90
2023-04-08T06:19:39.583Z,13.70
2023-04-08T06:19:49.711Z,14.30
2023-04-08T06:19:59.946Z,14.40
2023-04-08T06:20:09.979Z,14.70
2023-04-08T06:20:20.069Z,14.60
2023-04-08T06:20:30.244Z,14.80
2023-04-08T06:20:40.343Z,15.30
2023-04-08T06:20:50.485Z,15.20
2023-04-08T06:21:00.496Z,15.30
2023-04-08T06:21:10.752Z,15.20
2023-04-08T06:21:20.788Z,15.60
2023-04-08T06:21:30.937Z,15.60
2023-04-08T06:21:41.794Z,15.40
2023-04-08T06:21:51.235Z,15.80
2023-04-08T06:22:01.445Z,16.20
2023-04-08T06:22:11.465Z,16.40
2023-04-08T06:22:21.623Z,16.20
2023-04-08T06:22:31.687Z,16.60
2023-04-08T06:22:51.890Z,16.20
2023-04-08T06:23:01.969Z,15.80
2023-04-08T06:23:12.311Z,15.90
2023-04-08T06:23:22.239Z,15.80
2023-04-08T06:23:32.505Z,15.40
2023-04-08T06:23:42.552Z,15.60
2023-04-08T06:23:52.646Z,15.30
2023-04-08T06:24:02.759Z,15.30
2023-04-08T06:24:12.858Z,15.30
2023-04-08T06:24:22.985Z,15.30
2023-04-08T06:24:33.115Z,15.50
2023-04-08T06:24:43.267Z,15.30
2023-04-08T06:24:53.326Z,15.60
2023-04-08T06:25:07.168Z,15.40
2023-04-08T06:25:13.587Z,15.20
2023-04-08T06:25:23.782Z,15.70
2023-04-08T06:25:33.930Z,15.80
2023-04-08T06:25:44.010Z,15.90
2023-04-08T06:25:54.179Z,15.60
2023-04-08T06:26:15.218Z,15.60
2023-04-08T06:26:24.510Z,15.00
2023-04-08T06:26:34.588Z,14.80
2023-04-08T06:26:44.792Z,15.00
2023-04-08T06:26:55.776Z,15.00
2023-04-08T06:27:05.005Z,15.70
2023-04-08T06:27:25.384Z,16.00
2023-04-08T06:27:35.535Z,16.60
2023-04-08T06:27:45.606Z,16.80
2023-04-08T06:27:55.718Z,17.00
2023-04-08T06:28:05.854Z,16.50
2023-04-08T06:28:16.072Z,16.00
2023-04-08T06:28:26.193Z,15.80
2023-04-08T06:28:36.222Z,15.60
2023-04-08T06:28:46.311Z,15.50
2023-04-08T06:28:56.432Z,15.50
2023-04-08T06:29:06.773Z,15.80
2023-04-08T06:29:16.752Z,16.00
2023-04-08T06:29:26.936Z,15.80
2023-04-08T06:29:37.093Z,15.30
2023-04-08T06:29:47.060Z,14.90
2023-04-08T06:29:57.234Z,14.80
2023-04-08T06:30:07.268Z,14.60
2023-04-08T06:30:21.027Z,14.60
2023-04-08T06:30:27.704Z,14.60
2023-04-08T06:30:37.815Z,14.70
2023-04-08T06:30:47.817Z,15.00
2023-04-08T06:30:57.965Z,15.30
2023-04-08T06:31:08.125Z,15.10
2023-04-08T06:31:28.211Z,14.90
2023-04-08T06:31:39.479Z,14.80
2023-04-08T06:31:48.520Z,14.30
2023-04-08T06:31:58.812Z,13.90
2023-04-08T06:32:08.966Z,13.60
2023-04-08T06:32:19.902Z,13.50
2023-04-08T06:32:29.076Z,13.90
2023-04-08T06:32:49.393Z,14.10
2023-04-08T06:32:59.551Z,14.80
2023-04-08T06:33:09.541Z,14.50
2023-04-08T06:33:19.792Z,14.40
2023-04-08T06:33:30.401Z,14.20
2023-04-08T06:33:40.106Z,14.20
2023-04-08T06:33:50.407Z,14.40
2023-04-08T06:34:00.294Z,13.40
2023-04-08T06:34:10.421Z,13.40
2023-04-08T06:34:21.347Z,13.70
2023-04-08T06:34:30.632Z,13.50
2023-04-08T06:34:40.864Z,12.90
2023-04-08T06:34:51.009Z,13.00
2023-04-08T06:35:01.057Z,13.50
2023-04-08T06:35:11.221Z,13.70
2023-04-08T06:35:21.236Z,13.50
2023-04-08T06:35:32.589Z,13.50
2023-04-08T06:35:41.578Z,14.00
2023-04-08T06:35:51.665Z,13.70
2023-04-08T06:36:01.751Z,13.30
2023-04-08T06:36:11.874Z,13.30
2023-04-08T06:36:22.162Z,13.40
2023-04-08T06:36:32.150Z,13.30
2023-04-08T06:36:42.399Z,13.50
2023-04-08T06:36:52.585Z,13.40
2023-04-08T06:37:02.734Z,13.90
2023-04-08T06:37:12.781Z,13.30
2023-04-08T06:37:22.910Z,13.30
2023-04-08T06:37:33.018Z,13.00
2023-04-08T06:37:43.189Z,12.70
2023-04-08T06:37:53.272Z,13.00
2023-04-08T06:38:03.436Z,13.00
2023-04-08T06:38:13.483Z,13.60
2023-04-08T06:38:23.760Z,13.80
2023-04-08T06:38:33.722Z,14.70
2023-04-08T06:38:43.967Z,14.70
2023-04-08T06:38:54.012Z,14.80
2023-04-08T06:39:04.227Z,14.40
2023-04-08T06:39:14.483Z,14.80
2023-04-08T06:39:24.482Z,14.90
2023-04-08T06:39:34.604Z,14.40
2023-04-08T06:39:44.673Z,14.50
2023-04-08T06:39:54.802Z,14.20
2023-04-08T06:40:05.069Z,14.00
2023-04-08T06:40:15.126Z,13.80
2023-04-08T06:40:25.335Z,13.90
2023-04-08T06:40:35.883Z,14.10
2023-04-08T06:40:45.553Z,14.20
2023-04-08T06:40:55.630Z,14.20
2023-04-08T06:41:05.855Z,14.00
2023-04-08T06:41:15.947Z,13.70
2023-04-08T06:41:26.052Z,13.20
2023-04-08T06:41:36.534Z,13.20
2023-04-08T06:41:46.261Z,13.10
2023-04-08T06:41:56.870Z,13.10
2023-04-08T06:42:06.523Z,13.30
2023-04-08T06:42:16.668Z,13.80
2023-04-08T06:42:26.820Z,14.30
2023-04-08T06:42:36.834Z,14.60
2023-04-08T06:42:46.844Z,14.80
2023-04-08T06:42:57.060Z,14.90
2023-04-08T06:43:07.115Z,14.80
2023-04-08T06:43:17.679Z,14.50
2023-04-08T06:43:27.614Z,14.40
2023-04-08T06:43:37.731Z,13.80
2023-04-08T06:43:47.685Z,13.20
2023-04-08T06:43:57.776Z,13.00
2023-04-08T06:44:07.857Z,13.40
2023-04-08T06:44:18.832Z,13.80
2023-04-08T06:44:28.212Z,13.80
2023-04-08T06:44:38.321Z,14.00
2023-04-08T06:44:48.381Z,14.40
2023-04-08T06:44:58.533Z,14.20
2023-04-08T06:45:08.567Z,14.10
2023-04-08T06:45:28.883Z,13.80
2023-04-08T06:45:39.106Z,13.40
2023-04-08T06:45:49.300Z,13.60
2023-04-08T06:45:59.209Z,13.70
2023-04-08T06:46:09.258Z,13.40
2023-04-08T06:46:19.405Z,13.40
2023-04-08T06:46:29.533Z,13.50
2023-04-08T06:46:39.771Z,14.20
2023-04-08T06:46:49.783Z,14.10
2023-04-08T06:47:00.164Z,14.30
2023-04-08T06:47:09.974Z,14.70
2023-04-08T06:47:20.162Z,14.70
2023-04-08T06:47:30.305Z,14.70
2023-04-08T06:47:40.418Z,14.60
2023-04-08T06:47:50.530Z,14.80
2023-04-08T06:48:00.696Z,14.70
2023-04-08T06:48:10.693Z,14.40
2023-04-08T06:48:21.026Z,14.60
2023-04-08T06:48:31.313Z,14.40
2023-04-08T06:48:41.188Z,14.00
2023-04-08T06:48:51.405Z,13.90
2023-04-08T06:49:01.432Z,14.40
2023-04-08T06:49:11.451Z,14.60
2023-04-08T06:49:21.631Z,14.20
2023-04-08T06:49:31.739Z,14.50
2023-04-08T06:49:41.851Z,15.00
2023-04-08T06:49:52.773Z,14.80
2023-04-08T06:50:02.177Z,14.60
2023-04-08T06:50:12.435Z,14.80
2023-04-08T06:50:22.543Z,16.00
2023-04-08T06:50:32.629Z,15.80
2023-04-08T06:50:42.734Z,15.70
2023-04-08T06:50:52.899Z,15.60
2023-04-08T06:51:02.981Z,15.50
2023-04-08T06:51:13.091Z,15.60
2023-04-08T06:51:23.183Z,14.90
2023-04-08T06:51:33.314Z,15.20
2023-04-08T06:51:43.568Z,15.40
2023-04-08T06:51:53.547Z,15.40
2023-04-08T06:52:03.758Z,15.50
2023-04-08T06:52:15.072Z,15.80
2023-04-08T06:52:24.091Z,15.10
2023-04-08T06:52:34.156Z,14.50
2023-04-08T06:52:44.329Z,14.10
2023-04-08T06:52:54.379Z,14.90
2023-04-08T06:53:04.510Z,15.30
2023-04-08T06:53:14.708Z,15.00
2023-04-08T06:53:24.823Z,16.40
2023-04-08T06:53:34.932Z,17.00
2023-04-08T06:53:45.058Z,17.40
2023-04-08T06:53:55.166Z,16.70
2023-04-08T06:54:05.254Z,16.20
2023-04-08T06:54:15.294Z,15.50
2023-04-08T06:54:25.367Z,14.90
2023-04-08T06:54:35.595Z,14.70
2023-04-08T06:54:45.782Z,14.40
2023-04-08T06:54:55.854Z,14.10
2023-04-08T06:55:05.985Z,14.00
2023-04-08T06:55:16.049Z,14.10
2023-04-08T06:55:26.282Z,14.50
2023-04-08T06:55:36.320Z,14.20
2023-04-08T06:55:46.457Z,14.20
2023-04-08T06:55:56.578Z,14.00
2023-04-08T06:56:06.854Z,13.90
2023-04-08T06:56:16.916Z,13.90
2023-04-08T06:56:27.035Z,13.90
2023-04-08T06:56:37.276Z,13.90
2023-04-08T06:56:47.485Z,13.60
2023-04-08T06:56:57.415Z,13.70
2023-04-08T06:57:07.572Z,13.90
2023-04-08T06:57:17.735Z,14.00
2023-04-08T06:57:27.900Z,13.60
2023-04-08T06:57:37.996Z,14.30
2023-04-08T06:57:48.095Z,15.00
2023-04-08T06:57:58.145Z,15.40
2023-04-08T06:58:08.401Z,15.50
2023-04-08T06:58:18.415Z,15.30
2023-04-08T06:58:28.526Z,15.50
2023-04-08T06:58:38.659Z,14.40
2023-04-08T06:58:48.850Z,13.80
2023-04-08T06:58:58.938Z,13.30
2023-04-08T06:59:09.183Z,13.70
2023-04-08T06:59:19.164Z,13.20
2023-04-08T06:59:29.441Z,13.00
2023-04-08T06:59:39.463Z,13.30
2023-04-08T06:59:49.613Z,14.10
2023-04-08T06:59:59.731Z,14.60
2023-04-08T07:00:09.894Z,13.90
2023-04-08T07:00:19.945Z,14.60
2023-04-08T07:00:30.193Z,14.60
2023-04-08T07:00:40.319Z,14.70
2023-04-08T07:00:50.463Z,14.00
2023-04-08T07:01:00.572Z,14.10
2023-04-08T07:01:10.673Z,14.70
2023-04-08T07:01:20.788Z,14.80
2023-04-08T07:01:31.097Z,15.80
2023-04-08T07:01:41.004Z,16.00
2023-04-08T07:01:51.232Z,16.40
2023-04-08T07:02:01.273Z,16.00
2023-04-08T07:02:11.420Z,15.80
2023-04-08T07:02:21.614Z,15.80
2023-04-08T07:02:31.682Z,15.20
2023-04-08T07:02:41.941Z,15.90
2023-04-08T07:02:51.921Z,16.40
2023-04-08T07:03:02.051Z,17.10
2023-04-08T07:03:12.331Z,17.10
2023-04-08T07:03:22.485Z,17.00
2023-04-08T07:03:32.376Z,16.80
2023-04-08T07:03:42.478Z,16.50
2023-04-08T07:03:52.670Z,16.20
2023-04-08T07:04:02.851Z,15.90
2023-04-08T07:04:12.939Z,16.00
2023-04-08T07:04:23.059Z,16.10
2023-04-08T07:04:33.241Z,16.00
2023-04-08T07:04:44.949Z,15.70
2023-04-08T07:04:53.485Z,15.50
2023-04-08T07:05:03.479Z,15.40
2023-04-08T07:05:13.686Z,15.20
2023-04-08T07:05:23.972Z,15.00
2023-04-08T07:05:34.028Z,15.70
2023-04-08T07:05:43.986Z,15.50
2023-04-08T07:05:54.733Z,15.60
2023-04-08T07:06:04.388Z,15.90
2023-04-08T07:06:14.358Z,15.90
2023-04-08T07:06:24.451Z,15.90
2023-04-08T07:06:34.667Z,15.40
2023-04-08T07:06:44.693Z,15.40
2023-04-08T07:06:54.795Z,15.80
2023-04-08T07:07:05.512Z,15.70
2023-04-08T07:07:15.144Z,16.00
2023-04-08T07:07:25.045Z,16.20
2023-04-08T07:07:35.313Z,16.40
2023-04-08T07:07:45.332Z,16.80
2023-04-08T07:07:55.507Z,16.80
2023-04-08T07:08:05.557Z,17.00
2023-04-08T07:08:15.689Z,17.30
2023-04-08T07:08:25.774Z,17.40
2023-04-08T07:08:36.013Z,17.60
2023-04-08T07:08:45.995Z,17.40
2023-04-08T07:08:56.297Z,17.10
2023-04-08T07:09:06.232Z,17.00
2023-04-08T07:09:16.411Z,17.00
2023-04-08T07:09:26.526Z,17.30
2023-04-08T07:09:36.831Z,17.30
2023-04-08T07:09:46.773Z,17.50
2023-04-08T07:09:56.975Z,17.40
2023-04-08T07:10:09.648Z,17.70
2023-04-08T07:10:17.221Z,17.50
2023-04-08T07:10:27.237Z,18.00
2023-04-08T07:10:37.432Z,18.30
2023-04-08T07:10:47.432Z,18.40
2023-04-08T07:10:57.544Z,19.10
2023-04-08T07:11:07.687Z,19.30
2023-04-08T07:11:17.856Z,19.40
2023-04-08T07:11:27.937Z,18.70
2023-04-08T07:11:38.122Z,19.10
2023-04-08T07:11:48.253Z,18.80
2023-04-08T07:11:58.481Z,18.40
2023-04-08T07:12:09.244Z,18.20
2023-04-08T07:12:18.629Z,18.00
2023-04-08T07:12:30.846Z,18.40
2023-04-08T07:12:38.939Z,17.90
2023-04-08T07:12:49.051Z,18.30
2023-04-08T07:13:00.000Z,18.40
2023-04-08T07:13:09.294Z,18.20
2023-04-08T07:13:19.338Z,18.50
2023-04-08T07:13:39.621Z,18.70
2023-04-08T07:13:49.860Z,18.60
2023-04-08T07:13:59.796Z,18.40
2023-04-08T07:14:10.054Z,18.90
2023-04-08T07:14:20.111Z,18.40
2023-04-08T07:14:30.201Z,18.10
2023-04-08T07:14:40.341Z,18.20
2023-04-08T07:14:50.434Z,17.90
2023-04-08T07:15:00.433Z,17.90
2023-04-08T07:15:10.567Z,18.10
2023-04-08T07:15:20.678Z,18.50
2023-04-08T07:15:30.841Z,18.90
2023-04-08T07:15:41.921Z,19.40
2023-04-08T07:15:51.114Z,19.60
2023-04-08T07:16:01.301Z,19.80
2023-04-08T07:16:11.463Z,19.70
2023-04-08T07:16:21.500Z,19.50
2023-04-08T07:16:31.600Z,19.40
2023-04-08T07:16:51.976Z,18.80
2023-04-08T07:17:02.141Z,18.50
2023-04-08T07:17:12.163Z,18.10
2023-04-08T07:17:22.321Z,17.90
2023-04-08T07:17:32.404Z,18.10
2023-04-08T07:17:42.473Z,17.50
2023-04-08T07:17:52.680Z,17.50
2023-04-08T07:18:02.733Z,17.70
2023-04-08T07:18:13.922Z,17.70
2023-04-08T07:18:23.920Z,17.80
2023-04-08T07:18:34.013Z,17.30
2023-04-08T07:18:43.875Z,17.60
2023-04-08T07:18:53.477Z,17.50
2023-04-08T07:19:04.417Z,18.00
2023-04-08T07:19:15.834Z,18.60
2023-04-08T07:19:24.438Z,18.70
2023-04-08T07:19:34.901Z,18.60
2023-04-08T07:19:47.063Z,18.80
2023-04-08T07:19:54.934Z,18.90
2023-04-08T07:20:14.418Z,18.40
2023-04-08T07:20:25.366Z,18.40
2023-04-08T07:20:34.736Z,18.80
2023-04-08T07:20:44.770Z,18.80
2023-04-08T07:20:54.894Z,18.90
2023-04-08T07:21:05.102Z,19.10
2023-04-08T07:21:15.351Z,18.50
2023-04-08T07:21:35.586Z,18.40
2023-04-08T07:21:46.876Z,19.20
2023-04-08T07:21:55.799Z,19.00
2023-04-08T07:22:05.830Z,19.10
2023-04-08T07:22:16.042Z,19.30
2023-04-08T07:22:26.088Z,19.30
2023-04-08T07:22:36.211Z,19.10
2023-04-08T07:22:56.433Z,18.30
2023-04-08T07:23:06.518Z,17.60
2023-04-08T07:23:16.602Z,17.30
2023-04-08T07:23:26.731Z,17.30
2023-04-08T07:23:36.899Z,17.60
2023-04-08T07:23:46.978Z,17.10
2023-04-08T07:23:57.213Z,17.10
2023-04-08T07:24:07.246Z,17.30
2023-04-08T07:24:17.331Z,17.30
2023-04-08T07:24:27.456Z,17.10
2023-04-08T07:24:37.745Z,17.30
2023-04-08T07:24:47.735Z,17.70
2023-04-08T07:24:57.830Z,17.90
2023-04-08T07:25:09.903Z,17.90
